Flight Track Log - Related Links

Times and Time Zones

All times are in EDT time to prevent confusion due to time zone crossing. See the ASA601 flight status page for this flight to view local times or setup timezone preferences in your user account.

Time Position Orientation Groundspeed Altitude Reporting Facility
EDT Latitude Longitude Course Direction KTS MPH feet Rate Location/Type
Thu 12:34:36 AM 36.0756 -115.1658 269° West 176 203 3,200  Level Los Angeles Center
Thu 12:35:30 AM 36.0744 -115.2300 269° West 209 241 5,600 2,365 Climbing Los Angeles Center
Thu 12:36:20 AM 36.0475 -115.2672 228° Southwest 236 272 7,300 2,649 Climbing Los Angeles Center
Thu 12:37:21 AM 35.9803 -115.2975 200° South 252 290 10,500 2,927 Climbing Los Angeles Center
Thu 12:38:23 AM 35.9589 -115.3839 253° West 276 318 13,300 2,829 Climbing Los Angeles Center
Thu 12:39:24 AM 35.9450 -115.5092 262° West 300 345 16,300 2,656 Climbing Los Angeles Center
Thu 12:40:25 AM 35.9350 -115.6300 264° West 356 410 18,700 2,311 Climbing Los Angeles Center
Thu 12:41:26 AM 35.9186 -115.7561 261° West 372 428 21,000 2,341 Climbing Los Angeles Center
Thu 12:42:28 AM 35.9028 -115.8997 262° West 395 455 23,500 2,293 Climbing Los Angeles Center
Thu 12:43:29 AM 35.9458 -116.0183 294° West 401 461 25,700 1,918 Climbing Los Angeles Center
Thu 12:44:30 AM 36.0394 -116.1042 323° Northwest 412 474 27,400 1,377 Climbing Los Angeles Center
Thu 12:45:31 AM 36.1372 -116.1950 323° Northwest 430 495 28,500 1,082 Climbing Los Angeles Center
Thu 12:46:32 AM 36.2394 -116.2850 325° Northwest 454 522 29,600 1,328 Climbing Los Angeles Center
Thu 12:47:33 AM 36.3447 -116.3844 323° Northwest 469 540 31,200 1,820 Climbing Los Angeles Center
Thu 12:48:34 AM 36.4500 -116.4847 323° Northwest 476 548 33,300 1,951 Climbing Los Angeles Center
Thu 12:49:36 AM 36.5561 -116.5842 323° Northwest 464 534 35,200 1,512 Climbing Los Angeles Center
Thu 12:50:37 AM 36.6572 -116.6800 323° Northwest 457 526 36,400 1,082 Climbing Los Angeles Center
Thu 12:51:38 AM 36.7608 -116.7769 323° Northwest 463 533 37,400 1,131 Climbing Los Angeles Center
Thu 12:52:39 AM 36.8633 -116.8736 323° Northwest 461 531 38,700 1,131 Climbing Los Angeles Center
Thu 12:53:40 AM 36.9639 -116.9692 323° Northwest 455 524 39,700 639 Climbing Los Angeles Center
Thu 12:54:41 AM 37.0667 -117.0631 324° Northwest 456 525 40,000 148 Climbing Los Angeles Center
Thu 12:55:42 AM 37.2078 -117.1403 336° Northwest 460 529 40,000  Level Los Angeles Center
Thu 12:56:43 AM 37.3258 -117.2061 336° Northwest 466 536 40,000  Level Los Angeles Center
Thu 12:57:44 AM 37.4436 -117.2728 336° Northwest 463 533 40,000  Level Los Angeles Center
Thu 12:58:46 AM 37.5611 -117.3383 336° Northwest 461 531 40,000  Level Los Angeles Center
Thu 12:59:47 AM 37.6797 -117.4056 336° Northwest 461 531 40,000  Level Los Angeles Center
Thu 01:00:48 AM 37.7986 -117.4717 336° Northwest 463 533 40,000  Level Los Angeles Center
Thu 01:01:49 AM 37.9172 -117.5381 336° Northwest 463 533 40,000  Level Los Angeles Center
Thu 01:02:50 AM 38.0353 -117.6064 335° Northwest 459 528 40,000  Level Los Angeles Center
Thu 01:03:51 AM 38.1536 -117.6717 337° Northwest 459 528 40,000  Level Los Angeles Center
Thu 01:04:52 AM 38.2714 -117.7397 336° Northwest 459 528 40,000  Level Los Angeles Center
Thu 01:06:11 AM 38.4111 -117.8194 336° Northwest 458 527 40,000  Level Salt Lake Center
Thu 01:07:17 AM 38.5519 -117.8989 336° Northwest 458 527 40,000  Level Oakland Center
Thu 01:08:17 AM 38.6725 -117.9689 336° Northwest 459 528 40,000  Level Oakland Center
Thu 01:09:18 AM 38.7875 -118.0364 335° Northwest 455 524 40,000  Level Oakland Center
Thu 01:10:19 AM 38.9036 -118.1019 336° Northwest 457 526 40,000  Level Oakland Center
Thu 01:11:20 AM 39.0186 -118.1697 335° Northwest 455 524 40,000  Level Oakland Center
Thu 01:12:21 AM 39.1333 -118.2381 335° Northwest 456 525 40,000  Level Oakland Center
Thu 01:13:21 AM 39.2481 -118.3039 336° Northwest 454 522 40,000  Level Oakland Center
Thu 01:14:22 AM 39.3619 -118.3711 335° Northwest 454 522 40,000  Level Oakland Center
Thu 01:15:23 AM 39.4764 -118.4386 336° Northwest 457 526 40,000  Level Oakland Center
Thu 01:16:23 AM 39.5908 -118.5078 335° Northwest 461 531 40,000  Level Oakland Center
Thu 01:17:24 AM 39.7300 -118.5903 335° Northwest 463 533 40,000  Level Oakland Center
Thu 01:18:25 AM 39.8436 -118.6597 335° Northwest 457 526 40,000  Level Oakland Center
Thu 01:19:25 AM 39.9586 -118.7286 335° Northwest 456 525 40,000  Level Oakland Center
Thu 01:20:26 AM 40.0750 -118.8003 335° Northwest 461 531 40,000  Level Oakland Center
Thu 01:21:27 AM 40.1897 -118.8683 336° Northwest 456 525 40,000  Level Oakland Center
Thu 01:22:27 AM 40.3036 -118.9389 335° Northwest 454 522 40,000  Level Oakland Center
Thu 01:24:04 AM 40.4864 -119.0508 335° Northwest 453 521 40,000  Level Oakland Center
Thu 01:25:05 AM 40.6006 -119.1219 335° Northwest 454 522 40,000  Level Oakland Center
Thu 01:26:06 AM 40.7178 -119.1917 336° Northwest 461 531 40,000  Level Oakland Center
Thu 01:27:06 AM 40.8400 -119.2678 335° Northwest 464 534 40,000  Level Oakland Center
Thu 01:28:07 AM 40.9533 -119.3389 335° Northwest 467 537 40,000  Level Oakland Center
Thu 01:29:07 AM 41.0828 -119.4203 335° Northwest 470 541 40,000  Level Oakland Center
Thu 01:29:59 AM 41.1789 -119.4797 335° Northwest 469 540 40,000  Level Seattle Center
Thu 01:31:00 AM 41.2964 -119.5542 335° Northwest 468 539 40,000  Level Seattle Center
Thu 01:32:00 AM 41.4133 -119.6281 335° Northwest 468 539 40,000  Level Seattle Center
Thu 01:33:01 AM 41.5325 -119.7011 335° Northwest 473 544 40,000  Level Seattle Center
Thu 01:34:01 AM 41.6514 -119.7753 335° Northwest 473 544 40,000  Level Seattle Center
Thu 01:35:02 AM 41.7669 -119.8519 334° Northwest 465 535 40,000  Level Seattle Center
Thu 01:36:02 AM 41.8856 -119.9275 335° Northwest 471 542 40,000  Level Seattle Center
Thu 01:37:02 AM 42.0039 -120.0033 335° Northwest 473 544 40,000  Level Seattle Center
Thu 01:38:03 AM 42.1203 -120.0794 334° Northwest 468 539 40,000  Level Seattle Center
Thu 01:39:03 AM 42.2378 -120.1558 334° Northwest 470 541 40,000  Level Seattle Center
Thu 01:40:04 AM 42.3558 -120.2328 334° Northwest 472 543 40,000  Level Seattle Center
Thu 01:41:04 AM 42.4728 -120.3089 334° Northwest 470 541 40,000  Level Seattle Center
Thu 01:42:04 AM 42.5881 -120.3856 334° Northwest 466 536 40,000  Level Seattle Center
Thu 01:43:05 AM 42.7278 -120.4772 334° Northwest 466 536 40,000  Level Seattle Center
Thu 01:44:05 AM 42.8433 -120.5556 334° Northwest 465 535 40,000  Level Seattle Center
Thu 01:45:06 AM 42.9572 -120.6322 334° Northwest 462 532 40,000  Level Seattle Center
Thu 01:46:06 AM 43.0742 -120.7089 334° Northwest 467 537 40,000  Level Seattle Center
Thu 01:47:06 AM 43.1894 -120.7861 334° Northwest 464 534 40,000  Level Seattle Center
Thu 01:48:07 AM 43.3061 -120.8653 334° Northwest 469 540 40,000  Level Seattle Center
Thu 01:49:07 AM 43.4222 -120.9436 334° Northwest 468 539 40,000  Level Seattle Center
Thu 01:50:07 AM 43.5381 -121.0200 334° Northwest 466 536 40,000  Level Seattle Center
Thu 01:51:08 AM 43.6422 -121.0908 334° Northwest 465 535 40,000  Level Seattle Center
Thu 01:52:08 AM 43.7683 -121.1817 333° Northwest 469 540 40,000  Level Seattle Center
Thu 01:53:09 AM 43.8736 -121.2519 334° Northwest 464 534 40,000  Level Seattle Center
Thu 01:54:09 AM 43.9883 -121.3317 333° Northwest 461 531 40,000  Level Seattle Center
Thu 01:55:09 AM 44.1044 -121.4131 333° Northwest 465 535 40,000  Level Seattle Center
Thu 01:56:10 AM 44.2211 -121.4919 334° Northwest 466 536 40,000  Level Seattle Center
Thu 01:57:10 AM 44.3386 -121.5736 334° Northwest 470 541 40,000  Level Seattle Center
Thu 01:58:11 AM 44.4544 -121.6550 333° Northwest 467 537 40,000  Level Seattle Center
Thu 01:59:11 AM 44.5686 -121.7347 334° Northwest 462 532 40,000  Level Seattle Center
Thu 02:00:11 AM 44.6831 -121.8164 333° Northwest 461 531 40,000  Level Seattle Center
Thu 02:01:12 AM 44.7958 -121.8975 333° Northwest 457 526 40,000  Level Seattle Center
Thu 02:02:12 AM 44.9078 -121.9792 333° Northwest 451 519 40,000  Level Seattle Center
Thu 02:03:12 AM 45.0208 -122.0617 333° Northwest 456 525 40,000  Level Seattle Center
Thu 02:04:13 AM 45.1356 -122.1439 333° Northwest 463 533 40,000  Level Seattle Center
Thu 02:05:13 AM 45.2525 -122.2275 333° Northwest 469 540 40,000  Level Seattle Center
Thu 02:06:13 AM 45.3875 -122.3261 333° Northwest 464 534 40,000 -545 Level Seattle Center
Thu 02:07:14 AM 45.4989 -122.4086 333° Northwest 458 527 38,900 -1,785 Descending Seattle Center
Thu 02:08:14 AM 45.6069 -122.4869 333° Northwest 446 513 36,400 -2,800 Descending Seattle Center
Thu 02:09:14 AM 45.7183 -122.5683 333° Northwest 449 517 33,300 -2,678 Descending Seattle Center
Thu 02:10:15 AM 45.8408 -122.6147 345° North 459 528 31,000 -2,231 Descending Seattle Center
Thu 02:11:15 AM 45.9578 -122.6439 350° North 438 504 28,800 -2,132 Descending Seattle Center
Thu 02:12:16 AM 46.0692 -122.6694 351° North 414 476 26,700 -2,083 Descending Seattle Center
Thu 02:13:16 AM 46.1797 -122.6936 351° North 404 465 24,600 -2,050 Descending Seattle Center
Thu 02:14:16 AM 46.2867 -122.7156 352° North 399 459 22,600 -2,033 Descending Seattle Center
Thu 02:15:17 AM 46.3956 -122.7256 356° North 399 459 20,500 -2,083 Descending Seattle Center
Thu 02:16:17 AM 46.5017 -122.7294 359° North 386 444 18,400 -2,100 Descending Seattle Center
Thu 02:17:17 AM 46.6044 -122.7319 359° North 376 433 16,300 -2,230 Descending Seattle Center
Thu 02:18:10 AM 46.7083 -122.7375 358° North 361 415 14,200 -1,967 Descending Seattle Center
Thu 02:18:18 AM 46.7044 -122.7356 161° South 364 419 14,300 -1,588 Climbing Seattle Center
Thu 02:19:18 AM 46.8086 -122.7122 North 341 392 12,400 -1,944 Descending Seattle Center
Thu 02:19:29 AM 46.8233 -122.6919 43° Northeast 329 379 12,000 -1,700 Descending Seattle Center
Thu 02:20:18 AM 46.8753 -122.6258 41° Northeast 320 368 10,700 -1,574 Descending Seattle Center
Thu 02:20:30 AM 46.8906 -122.6072 40° Northeast 315 362 10,400 -885 Descending Seattle Center
Thu 02:21:19 AM 46.9369 -122.5356 47° Northeast 285 328 9,800 -800 Descending Seattle Center
Thu 02:21:30 AM 46.9456 -122.5258 38° Northeast 278 320 9,600 -1,300 Descending Seattle Center
Thu 02:22:19 AM 46.9911 -122.4592 45° Northeast 273 314 8,500 -1,377 Descending Seattle Center
Thu 02:22:31 AM 47.0017 -122.4497 31° Northeast 266 306 8,200 -1,279 Descending Seattle Center
Thu 02:23:20 AM 47.0561 -122.4058 29° Northeast 270 311 7,200 -1,364 Descending Seattle Center
Thu 02:23:37 AM 47.0753 -122.3903 29° Northeast 268 308 6,700 -1,200 Descending Seattle Center
Thu 02:24:20 AM 47.1197 -122.3519 30° Northeast 265 305 6,000 -873 Descending Seattle Center
Thu 02:24:32 AM 47.1292 -122.3478 17° North 263 303 5,900 -500 Descending Seattle Center
Thu 02:25:20 AM 47.1856 -122.3250 15° North 245 282 5,500 -590 Descending Seattle Center
Thu 02:25:33 AM 47.2003 -122.3219 North 231 266 5,300 -590 Descending Seattle Center
Thu 02:26:21 AM 47.2436 -122.3189 North 209 241 4,900 -600 Descending Seattle Center
Thu 02:26:33 AM 47.2528 -122.3192 359° North 179 206 4,700 -1,100 Descending Seattle Center
Thu 02:27:21 AM 47.2889 -122.3192 360° North 167 192 3,800 -1,180 Descending Seattle Center
Thu 02:27:34 AM 47.2997 -122.3194 359° North 154 177 3,500 -1,300 Descending Seattle Center
Thu 02:28:21 AM 47.3342 -122.3189 North 163 188 2,500 -1,200 Descending Seattle Center
Thu 02:28:34 AM 47.3439 -122.3181 North 163 188 2,300 -885 Descending Seattle Center
Thu 02:29:22 AM 47.3769 -122.3183 360° North 155 178 1,600 -885 Descending Seattle Center
Thu 02:29:35 AM 47.3858 -122.3178 North 150 173 1,400 -700 Descending Seattle Center
Thu 02:30:22 AM 47.4139 -122.3183 359° North 135 155 900 -627 Descending Seattle Center
Thu 02:30:42 AM 47.4261 -122.3186 359° North 123 142 700 -590 Descending Seattle Center
Thu 02:31:23 AM 47.4442 -122.3186 360° North 131 151 300 -585 Descending Seattle Center
Thu 02:33:00 AM 47.4499 -122.3118 39° Northeast  Level Estimated

Login

Don't have an account? Register now (free) for customized features, flight alerts, and more!